Aérodrome :
LOGIN :

S'inscrire | Disclaimer

   EN    FR    IT 

 










Légende :    VFR   VFR Marginal   IFR   IFR Intensif   IFR Très Intensif
Visi : 
Plafond : 
>= 8 km
>= 3000ft
5 à 8 km
1000 à 3000 ft
1500m à 5 km
500 à 1000 ft
800 à 1500m
200 à 500 ft
< 800m
< 200 ft
Symboles :   Orages  Brouillard  Fortes neiges  Fortes précipitations  Vent > 20 kt
SIGMETs :   Divers  Orages  Givrage  Turbulence  Onde Orograph.  Cendres Volcan.






- Altitude de l'aérodrome : 36 ft
- Code IATA : LTQ


LFAT - Le Touquet

DERNIER METAR :
  • 290530Z AUTO 26014KT 220V290 9999 BKN020 16/12 Q1011 TEMPO 26015G25KT

METARs EXPIRÉS :
  • 290500Z AUTO 25012KT 230V300 9999 BKN019 BKN024 16/12 Q1011
  • 290430Z AUTO 26013KT 230V290 9999 BKN020 BKN027 16/12 Q1011
  • 290400Z AUTO 26012KT 220V320 9999 BKN019 16/13 Q1011
  • 290330Z AUTO 26012KT 220V290 9999 BKN018 16/13 Q1011
  • 290300Z AUTO 26013G23KT 220V300 9999 BKN018 16/13 Q1011

TAF TAF LFAT
Valide du 29 à 06h jusqu'au 29 à 15h UTC


290500Z 2906/2915 26012KT 9999 BKN020
TEMPO 2906/2915 26015G25KT
ATIS : +33 3 21 06 62 84



MET'MAP, la Météo Aéronautique d'un coup d'oeil ! - Copyright ORBIFLY Décembre 2007 - Disclaimer

ORBIFLY MET'MAP TEAM :

Programmation & Développement : Alexandra Zaïnal
Sur une idée originale de : Baudouin d'Aumeries
Assistance à la programmation : Marc-Olivier Méhu
Soutien technique & logistique : Manuel Goepfert

Contact : metmap@orbifly.com




SOURCES & CREDITS :

   NOAA